Terminal Aerodrome Forecast
Issued by NWS

Home | Current Version | Previous Version | Text Only | Print | Product List | Glossary On
Versions: 1 2 3 4 5 6 7 8 9 10 11 12
000
FTUS42 TJSJ 211740
TAFJMZ
TAF
TJMZ 211740Z 2118/2218 27011KT P6SM VCTS SCT025CB BKN050
      TEMPO 2118/2122 VRB12G18KT 3SM TSRA BKN025CB OVC060
     FM212230 08007KT P6SM FEW030 SCT080
     FM220300 VRB03KT P6SM FEW100
     FM221450 29011KT P6SM VCSH SCT025 BKN050
      AMD NOT SKED=

USA.gov is the U.S. government's official web portal to all federal, state and local government web resources and services.